createdAt,value
2019-03-25T00:01:57.782Z,31.40
2019-03-25T00:04:26.288Z,28.98
2019-03-25T00:06:54.742Z,27.67
2019-03-25T00:09:22.994Z,28.80
2019-03-25T00:11:51.656Z,30.50
2019-03-25T00:14:20.220Z,29.67
2019-03-25T00:16:48.974Z,30.45
2019-03-25T00:19:17.999Z,34.25
2019-03-25T00:21:46.495Z,32.65
2019-03-25T00:24:14.819Z,31.37
2019-03-25T00:26:43.109Z,31.05
2019-03-25T00:29:11.515Z,34.83
2019-03-25T00:31:39.936Z,32.40
2019-03-25T00:34:08.671Z,33.83
2019-03-25T00:36:37.000Z,30.48
2019-03-25T00:39:06.206Z,31.52
2019-03-25T00:41:34.627Z,33.10
2019-03-25T00:44:03.985Z,33.55
2019-03-25T00:46:32.402Z,27.52
2019-03-25T00:49:01.161Z,32.30
2019-03-25T00:51:29.468Z,28.55
2019-03-25T00:53:58.145Z,30.60
2019-03-25T00:56:26.527Z,29.45
2019-03-25T00:58:55.288Z,31.12
2019-03-25T01:01:23.890Z,32.50
2019-03-25T01:03:52.151Z,33.25
2019-03-25T01:06:20.948Z,30.88
2019-03-25T01:08:49.317Z,30.52
2019-03-25T01:11:18.068Z,29.30
2019-03-25T01:13:46.552Z,29.07
2019-03-25T01:16:15.323Z,27.27
2019-03-25T01:18:44.233Z,27.37
2019-03-25T01:21:12.611Z,29.00
2019-03-25T01:23:40.976Z,26.27
2019-03-25T01:26:09.475Z,26.85
2019-03-25T01:28:38.109Z,27.30
2019-03-25T01:31:06.958Z,26.65
2019-03-25T01:33:35.763Z,26.68
2019-03-25T01:36:04.678Z,28.65
2019-03-25T01:38:33.091Z,26.65
2019-03-25T01:41:01.826Z,26.17
2019-03-25T01:43:31.377Z,25.40
2019-03-25T01:45:59.807Z,28.07
2019-03-25T01:48:28.258Z,26.23
2019-03-25T01:50:57.055Z,26.12
2019-03-25T01:53:25.633Z,26.17
2019-03-25T01:55:54.507Z,26.42
2019-03-25T01:58:23.119Z,26.87
2019-03-25T02:00:51.506Z,27.25
2019-03-25T02:03:19.826Z,25.10
2019-03-25T02:05:48.212Z,27.27
2019-03-25T02:08:17.087Z,26.93
2019-03-25T02:10:45.942Z,27.67
2019-03-25T02:13:14.498Z,30.08
2019-03-25T02:15:42.768Z,28.30
2019-03-25T02:18:11.146Z,28.35
2019-03-25T02:20:39.749Z,29.35
2019-03-25T02:23:08.255Z,30.43
2019-03-25T02:25:37.515Z,30.60
2019-03-25T02:28:06.182Z,30.70
2019-03-25T02:30:34.456Z,29.85
2019-03-25T02:33:02.757Z,30.45
2019-03-25T02:35:31.409Z,29.42
2019-03-25T02:37:59.886Z,30.60
2019-03-25T02:40:28.614Z,30.50
2019-03-25T02:42:57.300Z,34.75
2019-03-25T02:45:25.564Z,31.87
2019-03-25T02:47:53.885Z,31.25
2019-03-25T02:50:22.151Z,30.48
2019-03-25T02:52:50.497Z,29.82
2019-03-25T02:55:18.767Z,30.62
2019-03-25T02:57:47.160Z,30.52
2019-03-25T03:00:18.781Z,31.68
2019-03-25T03:02:48.305Z,31.75
2019-03-25T03:05:16.604Z,31.52
2019-03-25T03:07:45.539Z,30.97
2019-03-25T03:10:14.294Z,27.73
2019-03-25T03:12:43.458Z,28.45
2019-03-25T03:15:12.229Z,28.63
2019-03-25T03:17:40.674Z,28.30
2019-03-25T03:20:08.928Z,28.45
2019-03-25T03:22:37.431Z,28.40
2019-03-25T03:25:05.824Z,28.40
2019-03-25T03:27:34.350Z,27.77
2019-03-25T03:30:02.729Z,26.52
2019-03-25T03:32:31.524Z,26.10
2019-03-25T03:35:00.398Z,28.45
2019-03-25T03:37:29.262Z,26.00
2019-03-25T03:39:58.039Z,26.10
2019-03-25T03:42:26.933Z,24.52
2019-03-25T03:44:55.957Z,26.70
2019-03-25T03:47:24.916Z,24.50
2019-03-25T03:49:53.643Z,26.05
2019-03-25T03:52:22.082Z,23.90
2019-03-25T03:54:50.431Z,23.70
2019-03-25T03:57:19.028Z,22.65
2019-03-25T03:59:47.473Z,22.93
2019-03-25T04:02:16.709Z,23.87
2019-03-25T04:04:45.403Z,21.10
2019-03-25T04:07:13.792Z,21.42
2019-03-25T04:09:42.340Z,19.95
2019-03-25T04:12:10.869Z,20.85
2019-03-25T04:14:39.302Z,21.05
2019-03-25T04:17:08.056Z,19.82
2019-03-25T04:19:36.380Z,22.00
2019-03-25T04:22:05.147Z,19.40
2019-03-25T04:24:33.688Z,19.60
2019-03-25T04:27:02.630Z,21.40
2019-03-25T04:29:31.151Z,20.90
2019-03-25T04:31:59.996Z,21.93
2019-03-25T04:34:28.850Z,22.00
2019-03-25T04:36:57.379Z,21.90
2019-03-25T04:39:25.863Z,21.90
2019-03-25T04:41:54.442Z,22.02
2019-03-25T04:44:22.823Z,22.40
2019-03-25T04:46:52.189Z,21.70
2019-03-25T04:49:20.599Z,22.42
2019-03-25T04:51:49.108Z,21.90
2019-03-25T04:54:17.473Z,21.15
2019-03-25T04:56:46.056Z,23.30
2019-03-25T04:59:14.832Z,24.60
2019-03-25T05:01:43.614Z,20.72
2019-03-25T05:04:12.000Z,22.07
2019-03-25T05:06:40.618Z,20.62
2019-03-25T05:09:09.033Z,21.50
2019-03-25T05:11:37.985Z,22.48
2019-03-25T05:14:06.375Z,23.33
2019-03-25T05:16:35.083Z,21.80
2019-03-25T05:19:03.456Z,21.62
2019-03-25T05:21:32.251Z,21.25
2019-03-25T05:24:00.806Z,21.93
2019-03-25T05:26:29.082Z,21.93
2019-03-25T05:29:00.032Z,23.00
2019-03-25T05:31:29.139Z,22.55
2019-03-25T05:33:57.431Z,22.27
2019-03-25T05:36:25.992Z,22.17
2019-03-25T05:38:55.038Z,22.42
2019-03-25T05:41:23.889Z,22.37
2019-03-25T05:43:52.195Z,22.85
2019-03-25T05:46:20.578Z,24.02
2019-03-25T05:48:49.068Z,22.52
2019-03-25T05:51:17.428Z,23.67
2019-03-25T05:53:46.079Z,24.07
2019-03-25T05:56:14.712Z,27.75
2019-03-25T05:58:43.192Z,23.75
2019-03-25T06:01:13.780Z,21.70
2019-03-25T06:03:42.148Z,22.73
2019-03-25T06:06:10.633Z,21.68
2019-03-25T06:08:38.945Z,22.48
2019-03-25T06:11:07.508Z,21.97
2019-03-25T06:13:35.864Z,21.15
2019-03-25T06:16:04.806Z,22.50
2019-03-25T06:18:33.097Z,19.27
2019-03-25T06:21:01.436Z,20.08
2019-03-25T06:23:30.004Z,19.60
2019-03-25T06:25:58.723Z,20.52
2019-03-25T06:28:27.694Z,21.42
2019-03-25T06:30:56.079Z,21.15
2019-03-25T06:33:24.431Z,18.00
2019-03-25T06:35:53.067Z,19.60
2019-03-25T06:38:21.479Z,19.75
2019-03-25T06:40:49.908Z,18.73
2019-03-25T06:43:18.324Z,17.73
2019-03-25T06:45:46.828Z,17.30
2019-03-25T06:48:16.963Z,18.45
2019-03-25T06:50:45.453Z,18.48
2019-03-25T06:53:15.448Z,16.95
2019-03-25T06:55:43.924Z,17.90
2019-03-25T06:58:12.421Z,17.98
2019-03-25T07:00:40.866Z,18.27
2019-03-25T07:03:09.321Z,18.25
2019-03-25T07:05:38.056Z,17.32
2019-03-25T07:08:06.466Z,18.57
2019-03-25T07:10:36.930Z,19.27
2019-03-25T07:13:07.313Z,18.15
2019-03-25T07:15:35.612Z,18.75
2019-03-25T07:18:04.265Z,18.60
2019-03-25T07:20:32.718Z,19.15
2019-03-25T07:23:01.102Z,17.92
2019-03-25T07:25:31.899Z,17.70
2019-03-25T07:28:00.173Z,18.75
2019-03-25T07:30:28.690Z,19.07
2019-03-25T07:32:57.086Z,19.82
2019-03-25T07:35:25.669Z,18.70
2019-03-25T07:37:54.132Z,18.05
2019-03-25T07:40:22.562Z,16.85
2019-03-25T07:42:51.002Z,17.27
2019-03-25T07:45:19.545Z,15.15
2019-03-25T07:47:48.037Z,16.40
2019-03-25T07:50:16.351Z,14.87
2019-03-25T07:52:44.891Z,15.08
2019-03-25T07:55:13.421Z,14.90
2019-03-25T07:57:48.043Z,13.25
2019-03-25T08:00:14.313Z,14.50
2019-03-25T08:02:43.100Z,12.85
2019-03-25T08:05:11.524Z,12.47
2019-03-25T08:07:39.992Z,12.88
2019-03-25T08:10:08.417Z,12.80
2019-03-25T08:12:36.986Z,13.03
2019-03-25T08:15:08.396Z,12.70
2019-03-25T08:17:36.855Z,13.35
2019-03-25T08:20:07.509Z,12.73
2019-03-25T08:22:36.118Z,13.68
2019-03-25T08:25:05.844Z,13.18
2019-03-25T08:27:34.267Z,12.95
2019-03-25T08:30:02.612Z,13.60
2019-03-25T08:32:31.257Z,13.18
2019-03-25T08:34:59.756Z,12.13
2019-03-25T08:37:28.546Z,13.70
2019-03-25T08:39:57.278Z,13.55
2019-03-25T08:42:25.742Z,14.90
2019-03-25T08:44:54.279Z,15.48
2019-03-25T08:47:22.633Z,15.20
2019-03-25T08:49:51.024Z,14.83
2019-03-25T08:52:19.468Z,13.30
2019-03-25T08:54:47.971Z,14.40
2019-03-25T08:57:16.366Z,13.75
2019-03-25T08:59:44.983Z,12.88
2019-03-25T09:02:13.807Z,11.73
2019-03-25T09:04:42.068Z,11.90
2019-03-25T09:07:10.563Z,12.45
2019-03-25T09:09:39.111Z,12.80
2019-03-25T09:12:07.594Z,11.55
2019-03-25T09:14:37.514Z,10.58
2019-03-25T09:17:06.749Z,11.85
2019-03-25T09:19:35.132Z,12.60
2019-03-25T09:22:03.557Z,11.48
2019-03-25T09:24:33.133Z,11.93
2019-03-25T09:27:01.726Z,11.70
2019-03-25T09:29:30.167Z,11.28
2019-03-25T09:31:58.464Z,9.83
2019-03-25T09:34:26.964Z,10.85
2019-03-25T09:36:55.226Z,10.82
2019-03-25T09:39:23.612Z,10.93
2019-03-25T09:41:52.079Z,10.70
2019-03-25T09:44:20.413Z,11.55
2019-03-25T09:46:48.699Z,12.28
2019-03-25T09:49:17.140Z,11.22
2019-03-25T09:51:45.491Z,14.87
2019-03-25T09:54:14.213Z,14.10
2019-03-25T09:56:42.566Z,15.55
2019-03-25T09:59:10.974Z,16.52
2019-03-25T10:01:39.447Z,16.70
2019-03-25T10:04:08.172Z,14.83
2019-03-25T10:06:36.781Z,16.27
2019-03-25T10:09:08.666Z,17.27
2019-03-25T10:11:37.113Z,15.08
2019-03-25T10:14:05.687Z,13.88
2019-03-25T10:16:35.171Z,14.40
2019-03-25T10:19:03.481Z,16.15
2019-03-25T10:21:31.806Z,17.02
2019-03-25T10:24:00.578Z,16.37
2019-03-25T10:26:29.353Z,17.12
2019-03-25T10:28:57.875Z,15.00
2019-03-25T10:31:26.585Z,14.25
2019-03-25T10:33:55.126Z,15.58
2019-03-25T10:36:23.730Z,15.30
2019-03-25T10:38:52.050Z,17.50
2019-03-25T10:41:20.473Z,15.72
2019-03-25T10:43:49.143Z,15.18
2019-03-25T10:46:17.709Z,16.97
2019-03-25T10:48:46.066Z,16.42
2019-03-25T10:51:14.479Z,14.70
2019-03-25T10:53:42.803Z,17.37
2019-03-25T10:56:22.522Z,16.77
2019-03-25T10:58:57.985Z,15.83
2019-03-25T11:03:49.452Z,13.88
2019-03-25T11:06:18.467Z,12.95
2019-03-25T11:08:46.822Z,12.10
2019-03-25T11:11:15.183Z,13.35
2019-03-25T11:13:43.951Z,12.37
2019-03-25T11:16:12.383Z,12.28
2019-03-25T11:18:40.751Z,12.45
2019-03-25T11:21:09.197Z,12.28
2019-03-25T11:23:37.541Z,13.48
2019-03-25T11:26:05.914Z,13.25
2019-03-25T11:28:34.340Z,13.72
2019-03-25T11:31:02.704Z,13.05
2019-03-25T11:33:31.267Z,12.65
2019-03-25T11:35:59.565Z,13.05
2019-03-25T11:38:27.848Z,11.40
2019-03-25T11:40:56.212Z,14.07
2019-03-25T11:43:24.593Z,12.85
2019-03-25T11:45:52.935Z,13.28
2019-03-25T11:48:21.311Z,14.63
2019-03-25T11:50:49.616Z,15.60
2019-03-25T11:53:17.886Z,12.82
2019-03-25T11:55:46.228Z,6.58
2019-03-25T11:58:14.599Z,6.55
2019-03-25T12:00:43.009Z,6.17
2019-03-25T12:03:11.342Z,6.78
2019-03-25T12:05:40.731Z,9.75
2019-03-25T12:08:09.298Z,12.33
2019-03-25T12:10:37.797Z,12.53
2019-03-25T12:13:06.286Z,12.53
2019-03-25T12:15:34.589Z,11.40
2019-03-25T12:18:04.796Z,15.10
2019-03-25T12:20:33.108Z,14.13
2019-03-25T12:23:01.550Z,13.00
2019-03-25T12:25:30.055Z,14.55
2019-03-25T12:27:58.349Z,12.25
2019-03-25T12:30:26.981Z,13.53
2019-03-25T12:33:03.584Z,15.78
2019-03-25T12:35:25.566Z,14.28
2019-03-25T12:37:53.870Z,12.18
2019-03-25T12:40:22.239Z,12.45
2019-03-25T12:42:50.720Z,12.07
2019-03-25T12:45:19.097Z,11.55
2019-03-25T12:47:47.690Z,12.00
2019-03-25T12:50:16.158Z,10.38
2019-03-25T12:52:44.543Z,12.25
2019-03-25T12:55:12.901Z,11.03
2019-03-25T12:57:41.300Z,14.38
2019-03-25T13:00:09.706Z,13.35
2019-03-25T13:02:38.217Z,13.80
2019-03-25T13:05:07.034Z,14.65
2019-03-25T13:07:35.408Z,13.75
2019-03-25T13:10:04.988Z,13.85
2019-03-25T13:12:33.394Z,13.75
2019-03-25T13:15:01.687Z,14.50
2019-03-25T13:17:30.226Z,14.85
2019-03-25T13:19:58.712Z,13.55
2019-03-25T13:22:27.110Z,13.18
2019-03-25T13:24:55.558Z,12.20
2019-03-25T13:27:24.054Z,13.32
2019-03-25T13:29:53.037Z,12.53
2019-03-25T13:32:21.692Z,13.30
2019-03-25T13:34:50.355Z,12.60
2019-03-25T13:37:18.994Z,13.35
2019-03-25T13:39:47.316Z,12.75
2019-03-25T13:42:15.692Z,13.10
2019-03-25T13:44:44.362Z,13.90
2019-03-25T13:47:12.900Z,12.68
2019-03-25T13:49:41.428Z,12.90
2019-03-25T13:52:09.782Z,12.63
2019-03-25T13:54:38.259Z,11.73
2019-03-25T13:57:06.799Z,11.30
2019-03-25T13:59:35.117Z,11.68
2019-03-25T14:02:03.540Z,13.38
2019-03-25T14:04:32.180Z,13.35
2019-03-25T14:07:00.443Z,13.70
2019-03-25T14:09:29.037Z,12.25
2019-03-25T14:11:57.419Z,12.30
2019-03-25T14:14:26.030Z,12.07
2019-03-25T14:16:54.408Z,12.13
2019-03-25T14:19:22.914Z,12.15
2019-03-25T14:21:51.282Z,11.48
2019-03-25T14:24:19.586Z,10.98
2019-03-25T14:26:47.953Z,11.60
2019-03-25T14:29:16.245Z,11.35
2019-03-25T14:31:44.583Z,12.50
2019-03-25T14:34:14.580Z,10.98
2019-03-25T14:36:43.072Z,12.85
2019-03-25T14:39:11.348Z,13.55
2019-03-25T14:41:39.742Z,13.43
2019-03-25T14:44:08.264Z,12.78
2019-03-25T14:46:36.600Z,12.35
2019-03-25T14:49:04.898Z,13.80
2019-03-25T14:51:33.271Z,11.53
2019-03-25T14:54:01.550Z,6.28
2019-03-25T14:56:29.990Z,7.78
2019-03-25T14:58:58.419Z,4.15
2019-03-25T15:01:26.948Z,9.45
2019-03-25T15:03:55.456Z,11.50
2019-03-25T15:06:23.888Z,9.25
2019-03-25T15:08:52.317Z,11.65
2019-03-25T15:11:20.634Z,11.30
2019-03-25T15:13:48.935Z,12.70
2019-03-25T15:16:17.303Z,10.18
2019-03-25T15:18:45.661Z,7.97
2019-03-25T15:21:36.378Z,8.05
2019-03-25T15:24:05.221Z,7.33
2019-03-25T15:26:34.140Z,5.50
2019-03-25T15:29:02.477Z,6.10
2019-03-25T15:31:30.888Z,4.40
2019-03-25T15:33:59.259Z,5.10
2019-03-25T15:36:27.617Z,5.55
2019-03-25T15:38:55.969Z,5.33
2019-03-25T15:41:27.042Z,5.15
2019-03-25T15:43:55.602Z,4.85
2019-03-25T15:46:24.807Z,5.10
2019-03-25T15:48:53.097Z,5.08
2019-03-25T15:51:23.052Z,4.97
2019-03-25T15:53:51.785Z,5.62
2019-03-25T15:56:20.070Z,5.03
2019-03-25T15:58:48.471Z,5.58
2019-03-25T16:01:16.931Z,5.55
2019-03-25T16:03:45.417Z,5.65
2019-03-25T16:06:14.107Z,5.90
2019-03-25T16:08:44.340Z,5.65
2019-03-25T16:11:13.173Z,6.15
2019-03-25T16:14:05.481Z,5.75
2019-03-25T16:16:34.075Z,3.85
2019-03-25T16:19:02.557Z,6.03
2019-03-25T16:21:30.910Z,6.20
2019-03-25T16:23:59.308Z,6.35
2019-03-25T16:26:27.727Z,6.85
2019-03-25T16:28:57.169Z,6.85
2019-03-25T16:31:38.065Z,7.45
2019-03-25T16:34:06.346Z,7.62
2019-03-25T16:36:35.113Z,7.30
2019-03-25T16:39:04.209Z,8.90
2019-03-25T16:41:32.813Z,8.17
2019-03-25T16:44:01.183Z,7.28
2019-03-25T16:46:29.615Z,7.55
2019-03-25T16:48:57.939Z,9.05
2019-03-25T16:51:27.332Z,7.85
2019-03-25T16:54:00.800Z,9.23
2019-03-25T16:56:29.313Z,8.50
2019-03-25T16:58:58.353Z,8.33
2019-03-25T17:01:26.886Z,9.33
2019-03-25T17:03:55.383Z,13.30
2019-03-25T17:06:24.054Z,47.93
2019-03-25T17:08:52.712Z,47.90
2019-03-25T17:11:21.115Z,9.25
2019-03-25T17:13:49.482Z,10.18
2019-03-25T17:16:18.056Z,13.35
2019-03-25T17:18:46.475Z,34.00
2019-03-25T17:21:14.763Z,28.52
2019-03-25T17:23:43.423Z,27.25
2019-03-25T17:26:11.860Z,77.22
2019-03-25T17:28:40.400Z,19.12
2019-03-25T17:31:08.805Z,18.23
2019-03-25T17:33:38.864Z,12.95
2019-03-25T17:36:07.204Z,13.85
2019-03-25T17:38:35.502Z,11.78
2019-03-25T17:41:03.781Z,11.40
2019-03-25T17:43:32.159Z,12.85
2019-03-25T17:46:00.482Z,13.28
2019-03-25T17:48:31.721Z,15.65
2019-03-25T17:51:00.220Z,10.38
2019-03-25T17:53:28.853Z,50.25
2019-03-25T17:55:57.258Z,17.25
2019-03-25T17:58:25.513Z,12.63
2019-03-25T18:00:59.221Z,11.30
2019-03-25T18:03:27.650Z,10.75
2019-03-25T18:05:55.944Z,10.58
2019-03-25T18:08:24.343Z,11.68
2019-03-25T18:10:58.405Z,10.82
2019-03-25T18:13:26.715Z,11.73
2019-03-25T18:16:02.948Z,12.85
2019-03-25T18:18:30.932Z,10.80
2019-03-25T18:20:59.246Z,10.67
2019-03-25T18:23:27.530Z,8.33
2019-03-25T18:25:55.812Z,8.15
2019-03-25T18:28:29.943Z,6.70
2019-03-25T18:33:42.463Z,5.25
2019-03-25T18:36:10.755Z,6.20
2019-03-25T18:38:39.052Z,5.80
2019-03-25T18:41:07.434Z,5.55
2019-03-25T18:43:35.986Z,6.80
2019-03-25T18:46:04.468Z,6.78
2019-03-25T18:48:33.011Z,5.60
2019-03-25T18:51:02.616Z,6.03
2019-03-25T18:53:30.992Z,6.75
2019-03-25T18:55:59.345Z,7.08
2019-03-25T18:58:27.633Z,7.50
2019-03-25T19:00:55.978Z,5.40
2019-03-25T19:03:24.343Z,7.30
2019-03-25T19:05:52.751Z,8.58
2019-03-25T19:08:21.071Z,7.62
2019-03-25T19:10:49.355Z,7.12
2019-03-25T19:13:17.809Z,8.40
2019-03-25T19:15:46.139Z,8.48
2019-03-25T19:18:14.552Z,8.75
2019-03-25T19:20:45.233Z,11.57
2019-03-25T19:23:13.636Z,10.15
2019-03-25T19:25:42.019Z,9.43
2019-03-25T19:28:10.477Z,12.60
2019-03-25T19:30:38.848Z,14.95
2019-03-25T19:33:07.196Z,7.87
2019-03-25T19:35:35.533Z,8.33
2019-03-25T19:38:03.887Z,11.08
2019-03-25T19:40:32.210Z,9.48
2019-03-25T19:43:00.592Z,9.73
2019-03-25T19:45:30.733Z,13.88
2019-03-25T19:47:59.032Z,11.12
2019-03-25T19:50:27.415Z,12.88
2019-03-25T19:52:55.771Z,9.18
2019-03-25T19:55:24.111Z,10.20
2019-03-25T19:57:52.578Z,9.88
2019-03-25T20:00:24.168Z,10.45
2019-03-25T20:02:52.538Z,10.13
2019-03-25T20:05:20.893Z,9.30
2019-03-25T20:07:49.267Z,12.10
2019-03-25T20:10:30.365Z,11.15
2019-03-25T20:12:59.123Z,10.80
2019-03-25T20:15:27.567Z,10.95
2019-03-25T20:17:55.924Z,11.05
2019-03-25T20:20:24.236Z,11.45
2019-03-25T20:22:52.697Z,10.18
2019-03-25T20:25:23.127Z,10.98
2019-03-25T20:27:53.062Z,12.43
2019-03-25T20:30:23.233Z,13.18
2019-03-25T20:32:51.675Z,12.75
2019-03-25T20:35:21.588Z,12.35
2019-03-25T20:40:22.212Z,13.03
2019-03-25T20:42:50.765Z,15.25
2019-03-25T20:45:19.720Z,15.93
2019-03-25T20:47:48.144Z,13.87
2019-03-25T20:50:16.532Z,13.38
2019-03-25T20:52:45.156Z,14.47
2019-03-25T20:55:13.414Z,13.88
2019-03-25T20:57:54.635Z,14.13
2019-03-25T21:00:43.587Z,13.20
2019-03-25T21:03:12.482Z,12.18
2019-03-25T21:05:41.245Z,12.47
2019-03-25T21:08:10.666Z,12.53
2019-03-25T21:10:39.062Z,14.05
2019-03-25T21:13:07.952Z,13.65
2019-03-25T21:15:36.822Z,13.13
2019-03-25T21:18:08.328Z,12.58
2019-03-25T21:20:36.877Z,12.25
2019-03-25T21:23:05.221Z,12.00
2019-03-25T21:25:35.488Z,11.65
2019-03-25T21:28:03.990Z,12.53
2019-03-25T21:30:32.589Z,13.20
2019-03-25T21:33:01.184Z,11.93
2019-03-25T21:35:29.988Z,12.40
2019-03-25T21:37:59.166Z,10.58
2019-03-25T21:40:27.640Z,10.32
2019-03-25T21:42:59.275Z,10.30
2019-03-25T21:45:27.821Z,10.75
2019-03-25T21:47:56.357Z,10.55
2019-03-25T21:50:24.795Z,10.45
2019-03-25T21:52:53.324Z,10.88
2019-03-25T21:55:27.805Z,11.08
2019-03-25T21:57:56.365Z,11.57
2019-03-25T22:00:24.850Z,11.48
2019-03-25T22:02:53.233Z,11.40
2019-03-25T22:05:21.795Z,10.78
2019-03-25T22:07:50.354Z,12.10
2019-03-25T22:10:18.864Z,11.18
2019-03-25T22:12:47.235Z,10.75
2019-03-25T22:15:16.060Z,11.43
2019-03-25T22:17:44.599Z,10.98
2019-03-25T22:20:13.407Z,11.85
2019-03-25T22:22:41.851Z,10.18
2019-03-25T22:25:10.354Z,12.55
2019-03-25T22:27:38.911Z,12.25
2019-03-25T22:30:07.999Z,13.05
2019-03-25T22:32:36.892Z,13.27
2019-03-25T22:35:06.508Z,12.10
2019-03-25T22:37:35.036Z,13.00
2019-03-25T22:40:06.263Z,11.25
2019-03-25T22:42:34.835Z,12.63
2019-03-25T22:45:03.676Z,11.20
2019-03-25T22:47:32.193Z,12.33
2019-03-25T22:50:00.750Z,12.43
2019-03-25T22:52:29.679Z,12.35
2019-03-25T22:54:58.211Z,12.63
2019-03-25T22:57:26.674Z,13.13
2019-03-25T22:59:55.114Z,13.35
2019-03-25T23:02:23.415Z,12.78
2019-03-25T23:04:52.180Z,13.00
2019-03-25T23:07:20.628Z,12.18
2019-03-25T23:09:49.378Z,13.18
2019-03-25T23:12:17.705Z,12.28
2019-03-25T23:14:46.063Z,12.90
2019-03-25T23:17:15.129Z,12.63
2019-03-25T23:19:43.827Z,12.23
2019-03-25T23:22:12.273Z,13.95
2019-03-25T23:24:40.879Z,13.10
2019-03-25T23:27:09.377Z,12.15
2019-03-25T23:29:38.072Z,12.95
2019-03-25T23:32:06.520Z,12.03
2019-03-25T23:34:35.224Z,12.47
2019-03-25T23:37:06.880Z,12.75
2019-03-25T23:39:35.264Z,12.40
2019-03-25T23:42:03.612Z,11.73
2019-03-25T23:44:32.066Z,12.13
2019-03-25T23:47:00.789Z,12.03
2019-03-25T23:49:29.405Z,12.23
2019-03-25T23:51:58.012Z,13.15
2019-03-25T23:54:26.526Z,11.70
2019-03-25T23:56:55.057Z,12.50
2019-03-25T23:59:23.504Z,12.78
